Time;durP1;ratioP1;P1;durP2;ratioP2;P2;SDS_P1;SDS_P2;PMS_P1;PMS_P2;Temp;Humidity;BMP_temperature;BMP_pressure;BME280_temperature;BME280_humidity;BME280_pressure;Samples;Min_cycle;Max_cycle;Signal;HPM_P1;HPM_P2
2022/11/08 00:01:47;;;;;;;2.93;2.00;;;8.90;99.90;;;;;;461426;257;27648;-69
2022/11/08 00:03:48;;;;;;;2.63;2.03;;;8.90;99.90;;;;;;484020;237;28547;-70
2022/11/08 00:15:07;;;;;;;3.00;1.90;;;8.90;99.90;;;;;;496342;239;28161;-70
2022/11/08 00:17:09;;;;;;;1.80;1.70;;;8.80;99.90;;;;;;496329;239;28466;-70
2022/11/08 00:19:10;;;;;;;2.27;1.83;;;8.80;99.90;;;;;;496342;239;27793;-69
2022/11/08 00:21:11;;;;;;;1.63;1.53;;;8.90;99.90;;;;;;496335;239;27948;-70
2022/11/08 00:23:12;;;;;;;1.90;1.80;;;8.80;99.90;;;;;;496344;239;27821;-71
2022/11/08 00:25:14;;;;;;;3.20;2.80;;;8.90;99.90;;;;;;496356;239;27941;-69
2022/11/08 00:27:15;;;;;;;3.43;2.17;;;8.90;99.90;;;;;;496332;239;27987;-70
2022/11/08 00:29:16;;;;;;;2.00;1.83;;;8.90;99.90;;;;;;496325;239;28036;-70
2022/11/08 00:31:17;;;;;;;1.60;1.50;;;8.90;99.90;;;;;;496323;239;27930;-69
2022/11/08 00:33:19;;;;;;;3.17;1.80;;;8.90;99.90;;;;;;496273;239;27806;-71
2022/11/08 00:35:20;;;;;;;4.10;1.93;;;8.90;99.90;;;;;;496261;239;27942;-70
2022/11/08 00:37:21;;;;;;;3.63;2.20;;;9.00;99.90;;;;;;496236;239;27997;-70
2022/11/08 00:39:22;;;;;;;3.27;1.90;;;9.10;99.90;;;;;;496256;239;28036;-69
2022/11/08 00:41:24;;;;;;;2.40;1.60;;;9.00;99.90;;;;;;496282;239;27950;-70
2022/11/08 00:43:25;;;;;;;2.37;1.57;;;9.00;99.90;;;;;;496291;239;28114;-71
2022/11/08 00:45:26;;;;;;;2.20;1.60;;;8.90;99.90;;;;;;496282;239;28024;-69
2022/11/08 00:47:27;;;;;;;2.67;2.10;;;8.90;99.90;;;;;;496298;239;28514;-69
2022/11/08 00:49:29;;;;;;;2.00;1.73;;;8.90;99.90;;;;;;496322;239;28882;-70
2022/11/08 00:51:30;;;;;;;2.87;2.13;;;8.80;99.90;;;;;;496362;239;28309;-70
2022/11/08 00:53:31;;;;;;;2.00;1.90;;;8.80;99.90;;;;;;496340;239;28265;-71
2022/11/08 00:55:32;;;;;;;2.97;1.80;;;8.70;99.90;;;;;;496333;239;28450;-70
2022/11/08 00:57:34;;;;;;;3.37;1.80;;;8.70;99.90;;;;;;496317;239;28368;-70
2022/11/08 00:59:35;;;;;;;1.63;1.53;;;8.70;99.90;;;;;;496327;239;27733;-70
2022/11/08 01:01:36;;;;;;;1.93;1.80;;;8.70;99.90;;;;;;496338;239;27950;-70
2022/11/08 01:03:37;;;;;;;1.87;1.70;;;8.70;99.90;;;;;;496315;239;27805;-70
2022/11/08 01:05:39;;;;;;;1.70;1.60;;;8.70;99.90;;;;;;496342;239;27945;-69
2022/11/08 01:07:40;;;;;;;4.90;1.87;;;8.80;99.90;;;;;;496323;239;28085;-70
2022/11/08 01:09:41;;;;;;;2.77;2.00;;;8.80;99.90;;;;;;496325;239;27834;-70
2022/11/08 01:11:45;;;;;;;1.70;1.60;;;8.70;99.90;;;;;;496315;239;27860;-69
2022/11/08 01:13:44;;;;;;;1.90;1.77;;;8.70;99.90;;;;;;496188;239;27966;-72
2022/11/08 01:15:45;;;;;;;1.83;1.67;;;8.70;99.90;;;;;;496310;239;28358;-70
2022/11/08 01:17:46;;;;;;;2.10;1.90;;;8.70;99.90;;;;;;496321;239;27586;-70
2022/11/08 01:19:47;;;;;;;1.70;1.60;;;8.70;99.90;;;;;;496323;239;27774;-69
2022/11/08 01:21:49;;;;;;;2.13;1.70;;;8.70;99.90;;;;;;496305;239;28546;-70
2022/11/08 01:23:50;;;;;;;1.80;1.70;;;8.70;99.90;;;;;;496332;239;28529;-72
2022/11/08 01:25:51;;;;;;;2.40;1.77;;;8.70;99.90;;;;;;496314;239;28167;-70
2022/11/08 01:27:52;;;;;;;1.93;1.83;;;8.70;99.90;;;;;;496293;239;28647;-70
2022/11/08 01:29:54;;;;;;;1.93;1.83;;;8.60;99.90;;;;;;496332;239;28084;-69
2022/11/08 01:31:55;;;;;;;3.40;1.67;;;8.60;99.90;;;;;;496327;239;28898;-70
2022/11/08 01:33:56;;;;;;;2.33;1.70;;;8.60;99.90;;;;;;496280;239;27957;-71
2022/11/08 01:35:57;;;;;;;2.33;1.60;;;8.60;99.90;;;;;;496328;239;28086;-70
2022/11/08 01:37:59;;;;;;;1.70;1.60;;;8.60;99.90;;;;;;496322;239;27499;-70
2022/11/08 01:40:00;;;;;;;1.90;1.80;;;8.60;99.90;;;;;;496300;238;27943;-69
2022/11/08 01:42:01;;;;;;;2.07;1.80;;;8.60;99.90;;;;;;496233;238;27880;-70
2022/11/08 01:44:02;;;;;;;1.73;1.63;;;8.60;99.90;;;;;;496288;238;28033;-71
2022/11/08 01:46:04;;;;;;;1.80;1.70;;;8.60;99.90;;;;;;496278;239;27670;-70
2022/11/08 01:48:05;;;;;;;1.73;1.63;;;8.50;99.90;;;;;;496305;239;27977;-70
2022/11/08 01:50:06;;;;;;;4.90;1.80;;;8.50;99.90;;;;;;496321;239;27863;-70
2022/11/08 01:52:07;;;;;;;1.70;1.60;;;8.50;99.90;;;;;;496360;239;27621;-70
2022/11/08 01:54:09;;;;;;;1.53;1.43;;;8.50;99.90;;;;;;496357;239;28322;-72
2022/11/08 01:56:10;;;;;;;1.60;1.50;;;8.50;99.90;;;;;;496353;239;27898;-70
2022/11/08 01:58:11;;;;;;;1.70;1.60;;;8.50;99.90;;;;;;496322;239;28061;-70
2022/11/08 02:00:12;;;;;;;2.80;1.60;;;8.50;99.90;;;;;;496285;239;27960;-70
2022/11/08 02:02:14;;;;;;;1.73;1.63;;;8.50;99.90;;;;;;496139;239;28337;-69
2022/11/08 02:04:15;;;;;;;2.20;1.70;;;8.50;99.90;;;;;;496145;239;28414;-70
2022/11/08 02:06:16;;;;;;;2.00;1.90;;;8.50;99.90;;;;;;496072;239;28152;-69
2022/11/08 02:08:17;;;;;;;1.70;1.60;;;8.50;99.90;;;;;;496190;239;27693;-70
2022/11/08 02:10:19;;;;;;;1.90;1.80;;;8.40;99.90;;;;;;496253;239;28050;-69
2022/11/08 02:12:20;;;;;;;2.37;1.63;;;8.40;99.90;;;;;;496317;239;28005;-69
2022/11/08 02:14:21;;;;;;;1.80;1.70;;;8.40;99.90;;;;;;496328;239;28516;-70
2022/11/08 02:16:22;;;;;;;1.65;1.55;;;8.30;99.90;;;;;;496309;239;28046;-69
2022/11/08 02:18:24;;;;;;;1.50;1.40;;;8.30;99.90;;;;;;496328;239;28086;-70
2022/11/08 02:20:26;;;;;;;1.40;1.40;;;8.30;99.90;;;;;;496313;239;27946;-69
2022/11/08 02:22:26;;;;;;;1.60;1.50;;;8.30;99.90;;;;;;496308;239;28106;-69
2022/11/08 02:24:27;;;;;;;1.47;1.47;;;8.20;99.90;;;;;;496312;239;28059;-71
2022/11/08 02:26:29;;;;;;;1.63;1.53;;;8.20;99.90;;;;;;496285;239;27824;-69
2022/11/08 02:28:30;;;;;;;3.00;1.63;;;8.20;99.90;;;;;;496300;239;27741;-70
2022/11/08 02:30:31;;;;;;;1.63;1.53;;;8.10;99.90;;;;;;496285;239;28038;-69
2022/11/08 02:32:32;;;;;;;3.70;1.77;;;8.10;99.90;;;;;;496311;239;27739;-70
2022/11/08 02:34:34;;;;;;;1.90;1.80;;;8.10;99.90;;;;;;496331;239;28080;-71
2022/11/08 02:36:35;;;;;;;4.43;1.60;;;8.00;99.90;;;;;;496349;239;27793;-70
2022/11/08 02:38:36;;;;;;;1.63;1.53;;;8.00;99.90;;;;;;496353;239;28069;-69
2022/11/08 02:40:37;;;;;;;1.50;1.40;;;8.00;99.90;;;;;;496312;239;28254;-70
2022/11/08 02:42:39;;;;;;;1.60;1.50;;;8.00;99.90;;;;;;496309;239;28095;-70
2022/11/08 02:44:40;;;;;;;1.57;1.47;;;8.00;99.90;;;;;;496327;239;27996;-72
2022/11/08 02:46:41;;;;;;;1.62;1.52;;;8.10;99.90;;;;;;496330;239;27850;-70
2022/11/08 02:48:42;;;;;;;1.43;1.33;;;8.00;99.90;;;;;;496327;239;28032;-71
2022/11/08 02:50:44;;;;;;;1.65;1.55;;;8.00;99.90;;;;;;496296;239;29067;-70
2022/11/08 02:52:45;;;;;;;1.83;1.73;;;8.00;99.90;;;;;;496307;239;27488;-70
2022/11/08 02:54:46;;;;;;;1.90;1.80;;;8.00;99.90;;;;;;496310;239;27989;-71
2022/11/08 02:56:47;;;;;;;2.37;2.03;;;8.00;99.90;;;;;;496326;239;27987;-69
2022/11/08 02:58:49;;;;;;;1.93;1.83;;;8.00;99.90;;;;;;496318;239;27734;-70
2022/11/08 03:00:50;;;;;;;1.50;1.40;;;8.00;99.90;;;;;;496307;239;27933;-69
2022/11/08 03:02:51;;;;;;;1.60;1.50;;;8.00;99.90;;;;;;496309;239;28048;-70
2022/11/08 03:04:52;;;;;;;1.73;1.63;;;7.90;99.90;;;;;;496328;239;27947;-71
2022/11/08 03:06:54;;;;;;;1.47;1.47;;;7.90;99.90;;;;;;496317;239;27826;-70
2022/11/08 03:08:55;;;;;;;1.27;1.27;;;7.90;99.90;;;;;;496243;239;27968;-70
2022/11/08 03:10:56;;;;;;;1.50;1.40;;;7.90;99.90;;;;;;496303;239;28013;-69
2022/11/08 03:12:57;;;;;;;1.83;1.70;;;7.90;99.90;;;;;;496305;239;28831;-70
2022/11/08 03:14:59;;;;;;;1.73;1.57;;;7.90;99.90;;;;;;496327;239;27972;-71
2022/11/08 03:17:00;;;;;;;1.70;1.60;;;7.90;99.90;;;;;;496318;239;27968;-70
2022/11/08 03:19:01;;;;;;;4.15;1.85;;;7.90;99.90;;;;;;496312;239;28130;-70
2022/11/08 03:21:02;;;;;;;1.62;1.40;;;7.90;99.90;;;;;;496316;239;28010;-69
2022/11/08 03:23:04;;;;;;;1.70;1.60;;;7.90;99.90;;;;;;496313;239;27497;-70
2022/11/08 03:25:05;;;;;;;4.87;2.85;;;7.90;99.90;;;;;;496251;239;27509;-70
2022/11/08 03:27:06;;;;;;;1.50;1.40;;;8.00;99.90;;;;;;496306;239;27613;-70
2022/11/08 03:29:07;;;;;;;2.17;2.07;;;8.00;99.90;;;;;;496311;239;28823;-70
2022/11/08 03:31:09;;;;;;;1.60;1.50;;;8.00;99.90;;;;;;496303;239;27692;-70
2022/11/08 03:33:10;;;;;;;1.77;1.67;;;8.00;99.90;;;;;;496311;239;27947;-69
2022/11/08 03:35:11;;;;;;;1.83;1.73;;;8.10;99.90;;;;;;496313;239;27959;-71
2022/11/08 03:37:12;;;;;;;1.63;1.53;;;8.10;99.90;;;;;;496304;239;28165;-70
2022/11/08 03:39:14;;;;;;;2.90;1.93;;;8.10;99.90;;;;;;496293;239;28081;-70
2022/11/08 03:41:15;;;;;;;1.63;1.53;;;8.20;99.90;;;;;;496293;239;28242;-70
2022/11/08 03:43:16;;;;;;;1.70;1.60;;;8.30;99.90;;;;;;496312;239;28469;-70
2022/11/08 03:45:17;;;;;;;1.43;1.40;;;8.30;99.90;;;;;;496309;239;28504;-71
2022/11/08 03:47:19;;;;;;;1.80;1.70;;;8.30;99.90;;;;;;496270;239;28168;-70
2022/11/08 03:49:20;;;;;;;1.90;1.80;;;8.30;99.90;;;;;;496314;239;28528;-70
2022/11/08 03:51:21;;;;;;;1.80;1.70;;;8.30;99.90;;;;;;496296;239;27901;-69
2022/11/08 03:53:22;;;;;;;1.40;1.40;;;8.30;99.90;;;;;;496291;239;28184;-70
2022/11/08 03:55:24;;;;;;;2.20;2.00;;;8.20;99.90;;;;;;496307;238;28055;-71
2022/11/08 03:57:25;;;;;;;1.80;1.60;;;8.30;99.90;;;;;;496299;239;28367;-70
2022/11/08 03:59:26;;;;;;;1.53;1.43;;;8.30;99.90;;;;;;496277;239;28278;-70
2022/11/08 04:01:27;;;;;;;2.47;1.40;;;8.30;99.90;;;;;;496303;239;27830;-69
2022/11/08 04:03:29;;;;;;;1.53;1.43;;;8.30;99.90;;;;;;496306;239;29007;-69
2022/11/08 04:05:31;;;;;;;1.50;1.40;;;8.40;99.90;;;;;;496313;239;28323;-71
2022/11/08 04:07:31;;;;;;;4.27;1.80;;;8.30;99.90;;;;;;496271;239;27924;-69
2022/11/08 04:09:32;;;;;;;1.80;1.70;;;8.30;99.90;;;;;;496314;239;28120;-70
2022/11/08 04:16:13;;;;;;;1.70;1.60;;;8.30;99.90;;;;;;496335;239;27866;-70
2022/11/08 04:22:53;;;;;;;1.47;1.37;;;8.30;99.90;;;;;;496305;239;27931;-69
2022/11/08 04:24:54;;;;;;;1.77;1.67;;;8.40;99.90;;;;;;496303;239;28407;-71
2022/11/08 04:26:56;;;;;;;1.63;1.53;;;8.30;99.90;;;;;;496345;239;28419;-69
2022/11/08 04:28:57;;;;;;;2.80;1.50;;;8.40;99.90;;;;;;496317;239;28644;-70
2022/11/08 04:30:58;;;;;;;7.03;2.47;;;8.60;99.90;;;;;;496318;239;28249;-70
2022/11/08 04:33:00;;;;;;;1.70;1.60;;;8.60;99.90;;;;;;496310;239;28475;-70
2022/11/08 04:35:01;;;;;;;1.60;1.50;;;8.60;99.90;;;;;;496324;239;27522;-71
2022/11/08 04:37:02;;;;;;;3.30;1.67;;;8.60;99.90;;;;;;496288;239;28074;-70
2022/11/08 04:39:03;;;;;;;1.80;1.70;;;8.60;99.90;;;;;;496311;239;27747;-70
2022/11/08 04:41:04;;;;;;;1.60;1.50;;;8.60;99.90;;;;;;496304;239;27894;-70
2022/11/08 04:43:06;;;;;;;2.83;1.90;;;8.60;99.90;;;;;;496298;239;28297;-70
2022/11/08 04:45:07;;;;;;;2.90;1.60;;;8.60;99.90;;;;;;496330;239;27959;-72
2022/11/08 04:47:09;;;;;;;1.93;1.77;;;8.60;99.90;;;;;;496329;239;27912;-70
2022/11/08 04:49:09;;;;;;;2.03;1.80;;;8.70;99.90;;;;;;496192;239;28071;-69
2022/11/08 04:51:11;;;;;;;2.17;1.70;;;8.70;99.90;;;;;;496295;239;27826;-69
2022/11/08 04:53:12;;;;;;;1.87;1.77;;;8.70;99.90;;;;;;496285;239;28053;-69
2022/11/08 04:55:13;;;;;;;3.63;2.03;;;8.70;99.90;;;;;;496314;239;27836;-71
2022/11/08 04:57:15;;;;;;;2.10;1.87;;;8.70;99.90;;;;;;496324;239;28037;-70
2022/11/08 04:59:16;;;;;;;2.20;2.00;;;8.60;99.90;;;;;;496220;239;27872;-70
2022/11/08 05:01:17;;;;;;;1.80;1.70;;;8.60;99.90;;;;;;496326;239;28386;-70
2022/11/08 05:03:18;;;;;;;1.93;1.80;;;8.60;99.90;;;;;;496323;239;28424;-70
2022/11/08 05:05:19;;;;;;;1.93;1.70;;;8.60;99.90;;;;;;496294;239;28520;-71
2022/11/08 05:07:21;;;;;;;2.83;2.07;;;8.50;99.90;;;;;;496298;239;28477;-70
2022/11/08 05:09:22;;;;;;;2.30;2.13;;;8.40;99.90;;;;;;496333;239;28538;-69
2022/11/08 05:11:23;;;;;;;1.60;1.50;;;8.40;99.90;;;;;;496335;239;28454;-70
2022/11/08 05:13:24;;;;;;;1.83;1.73;;;8.30;99.90;;;;;;496337;238;28084;-69
2022/11/08 05:15:26;;;;;;;1.70;1.60;;;8.30;99.90;;;;;;496347;239;27982;-71
2022/11/08 05:17:27;;;;;;;5.03;2.33;;;8.30;99.90;;;;;;496322;239;28845;-69
2022/11/08 05:24:08;;;;;;;1.70;1.60;;;8.30;99.90;;;;;;496321;239;27885;-70
2022/11/08 05:26:09;;;;;;;4.10;1.90;;;8.30;99.90;;;;;;496315;239;27815;-69
2022/11/08 05:28:10;;;;;;;2.23;1.67;;;8.30;99.90;;;;;;496387;239;27595;-70
2022/11/08 05:30:11;;;;;;;2.80;1.80;;;8.30;99.90;;;;;;496388;239;28830;-69
2022/11/08 05:32:13;;;;;;;1.92;1.83;;;8.30;99.90;;;;;;496397;239;29316;-70
2022/11/08 05:34:14;;;;;;;1.60;1.50;;;8.30;99.90;;;;;;496335;239;28056;-70
2022/11/08 05:36:15;;;;;;;2.05;1.60;;;8.30;99.90;;;;;;496333;239;27768;-69
2022/11/08 05:38:16;;;;;;;2.35;1.67;;;8.30;99.90;;;;;;496325;239;27606;-70
2022/11/08 05:40:18;;;;;;;1.70;1.60;;;8.20;99.90;;;;;;496325;239;27488;-70
2022/11/08 05:42:19;;;;;;;1.70;1.60;;;8.20;99.90;;;;;;496314;239;27957;-70
2022/11/08 05:44:20;;;;;;;1.60;1.50;;;8.30;99.90;;;;;;496330;239;28101;-71
2022/11/08 05:46:21;;;;;;;1.50;1.40;;;8.30;99.90;;;;;;496313;239;27580;-70
2022/11/08 05:48:23;;;;;;;2.33;1.87;;;8.40;99.90;;;;;;496315;239;27737;-70
2022/11/08 05:50:24;;;;;;;1.63;1.53;;;8.40;99.90;;;;;;496307;239;27668;-69
2022/11/08 05:52:25;;;;;;;2.00;1.50;;;8.30;99.90;;;;;;496306;239;27811;-69
2022/11/08 05:54:26;;;;;;;2.03;1.90;;;8.30;99.90;;;;;;496334;238;27970;-70
2022/11/08 05:56:28;;;;;;;1.77;1.67;;;8.30;99.90;;;;;;496285;239;29428;-70
2022/11/08 05:58:29;;;;;;;1.60;1.50;;;8.30;99.90;;;;;;496321;239;28214;-70
2022/11/08 06:00:30;;;;;;;1.65;1.55;;;8.30;99.90;;;;;;496325;239;28405;-70
2022/11/08 06:02:31;;;;;;;1.70;1.40;;;8.30;99.90;;;;;;496296;239;27609;-70
2022/11/08 06:04:33;;;;;;;2.00;1.50;;;8.30;99.90;;;;;;496314;239;27597;-71
2022/11/08 06:06:34;;;;;;;2.40;1.67;;;8.30;99.90;;;;;;496300;239;28780;-69
2022/11/08 06:08:35;;;;;;;2.80;1.83;;;8.30;99.90;;;;;;496301;239;28293;-70
2022/11/08 06:10:36;;;;;;;1.93;1.73;;;8.40;99.90;;;;;;496320;239;27652;-70
2022/11/08 06:12:38;;;;;;;1.80;1.60;;;8.40;99.90;;;;;;496328;239;27985;-70
2022/11/08 06:14:39;;;;;;;1.73;1.62;;;8.50;99.90;;;;;;496316;239;28134;-71
2022/11/08 06:16:40;;;;;;;1.80;1.70;;;8.60;99.90;;;;;;496310;239;27461;-70
2022/11/08 06:18:41;;;;;;;1.77;1.60;;;8.50;99.90;;;;;;496314;239;28098;-70
2022/11/08 06:20:43;;;;;;;1.80;1.70;;;8.40;99.90;;;;;;496298;239;28487;-70
2022/11/08 06:22:44;;;;;;;1.40;1.30;;;8.50;99.90;;;;;;496313;239;28394;-70
2022/11/08 06:24:45;;;;;;;1.83;1.73;;;8.50;99.90;;;;;;496329;239;28118;-70
2022/11/08 06:26:46;;;;;;;1.70;1.60;;;8.60;99.90;;;;;;496346;239;28097;-70
2022/11/08 06:28:48;;;;;;;1.93;1.60;;;8.70;99.90;;;;;;496332;239;28495;-70
2022/11/08 06:30:49;;;;;;;1.87;1.73;;;8.70;99.90;;;;;;496337;239;28634;-69
2022/11/08 06:32:50;;;;;;;1.80;1.70;;;8.70;99.90;;;;;;496326;239;27958;-70
2022/11/08 06:34:51;;;;;;;1.50;1.40;;;8.70;99.90;;;;;;496309;239;27944;-70
2022/11/08 06:36:55;;;;;;;3.73;1.60;;;8.80;99.90;;;;;;496316;239;27866;-70
2022/11/08 06:38:54;;;;;;;3.20;1.50;;;8.90;99.90;;;;;;496182;239;27674;-70
2022/11/08 06:40:55;;;;;;;3.43;1.90;;;9.00;99.90;;;;;;496279;239;28017;-69
2022/11/08 06:42:57;;;;;;;3.47;1.80;;;9.00;99.90;;;;;;496339;239;27811;-70
2022/11/08 06:44:58;;;;;;;1.67;1.57;;;9.00;99.90;;;;;;496310;239;27964;-70
2022/11/08 06:46:59;;;;;;;1.70;1.57;;;9.00;99.90;;;;;;496310;239;27849;-70
2022/11/08 06:49:00;;;;;;;1.77;1.63;;;9.10;99.90;;;;;;496314;239;27896;-70
2022/11/08 06:51:01;;;;;;;4.30;1.70;;;9.10;99.90;;;;;;496323;239;28040;-69
2022/11/08 06:53:03;;;;;;;3.20;1.77;;;9.20;99.90;;;;;;496313;239;27939;-70
2022/11/08 06:55:04;;;;;;;2.00;1.53;;;9.30;99.90;;;;;;496319;239;28157;-70
2022/11/08 06:57:05;;;;;;;1.77;1.67;;;9.30;99.90;;;;;;496319;239;27609;-70
2022/11/08 06:59:06;;;;;;;1.33;1.30;;;9.30;99.90;;;;;;496325;239;27842;-70
2022/11/08 07:01:08;;;;;;;2.27;1.80;;;9.40;99.90;;;;;;496314;239;28941;-69
2022/11/08 07:03:09;;;;;;;1.93;1.83;;;9.40;99.90;;;;;;496328;239;28474;-70
2022/11/08 07:05:10;;;;;;;3.70;1.80;;;9.40;99.90;;;;;;496315;239;28410;-70
2022/11/08 07:07:11;;;;;;;3.87;1.83;;;9.40;99.90;;;;;;496323;239;27907;-70
2022/11/08 07:09:13;;;;;;;1.63;1.53;;;9.40;99.90;;;;;;496321;239;28478;-70
2022/11/08 07:11:14;;;;;;;1.63;1.53;;;9.40;99.90;;;;;;496304;239;29215;-70
2022/11/08 07:13:15;;;;;;;2.10;1.70;;;9.50;99.90;;;;;;496312;239;27951;-70
2022/11/08 07:15:16;;;;;;;1.77;1.67;;;9.60;99.90;;;;;;496314;239;27711;-70
2022/11/08 07:17:18;;;;;;;1.73;1.60;;;9.60;99.90;;;;;;496251;239;27991;-70
2022/11/08 07:19:19;;;;;;;1.93;1.80;;;9.60;99.90;;;;;;496284;239;27863;-71
2022/11/08 07:21:20;;;;;;;1.70;1.53;;;9.70;99.90;;;;;;496300;239;27994;-70
2022/11/08 07:23:21;;;;;;;1.77;1.50;;;9.70;99.90;;;;;;496327;239;27839;-70
2022/11/08 07:25:23;;;;;;;1.70;1.60;;;9.80;99.90;;;;;;496305;239;28076;-71
2022/11/08 07:27:24;;;;;;;2.20;2.00;;;9.80;99.90;;;;;;496302;239;27966;-70
2022/11/08 07:29:25;;;;;;;1.93;1.83;;;9.90;99.90;;;;;;496307;239;28066;-70
2022/11/08 07:31:26;;;;;;;1.70;1.60;;;9.90;99.90;;;;;;496284;239;27974;-71
2022/11/08 07:33:28;;;;;;;1.77;1.67;;;9.90;99.90;;;;;;496311;239;27866;-70
2022/11/08 07:35:29;;;;;;;2.60;1.93;;;10.00;99.90;;;;;;496318;239;27868;-70
2022/11/08 07:37:30;;;;;;;2.10;1.50;;;10.00;99.90;;;;;;496115;239;28063;-70
2022/11/08 07:39:31;;;;;;;2.60;1.70;;;10.00;99.90;;;;;;496270;239;28446;-69
2022/11/08 07:41:33;;;;;;;1.83;1.40;;;10.10;99.90;;;;;;496281;239;28531;-72
2022/11/08 07:43:34;;;;;;;1.73;1.63;;;10.00;99.90;;;;;;496314;239;28573;-70
2022/11/08 07:45:35;;;;;;;1.77;1.67;;;10.10;99.90;;;;;;496291;239;28060;-70
2022/11/08 07:47:36;;;;;;;3.40;1.73;;;10.10;99.90;;;;;;496294;239;27765;-70
2022/11/08 07:49:38;;;;;;;2.47;1.40;;;10.20;99.90;;;;;;496308;239;28306;-70
2022/11/08 07:51:39;;;;;;;3.77;2.00;;;10.10;99.90;;;;;;496296;239;27952;-71
2022/11/08 07:53:40;;;;;;;2.70;1.87;;;10.10;99.90;;;;;;496221;239;27602;-70
2022/11/08 07:55:41;;;;;;;2.90;1.50;;;10.10;99.90;;;;;;496186;239;28011;-70
2022/11/08 07:57:43;;;;;;;2.10;1.50;;;10.20;99.90;;;;;;496192;239;27825;-70
2022/11/08 07:59:44;;;;;;;1.90;1.80;;;10.20;99.90;;;;;;496265;239;27950;-70
2022/11/08 08:01:45;;;;;;;1.83;1.73;;;10.10;99.90;;;;;;496268;239;28045;-71
2022/11/08 08:03:46;;;;;;;1.57;1.47;;;10.10;99.90;;;;;;496238;239;28421;-70
2022/11/08 08:05:48;;;;;;;1.60;1.50;;;10.20;99.90;;;;;;496247;239;28475;-70
2022/11/08 08:07:49;;;;;;;2.23;1.60;;;10.30;99.90;;;;;;496254;239;28260;-70
2022/11/08 08:09:50;;;;;;;1.77;1.67;;;10.30;99.90;;;;;;496310;238;28490;-70
2022/11/08 08:11:51;;;;;;;2.07;1.87;;;10.30;99.90;;;;;;496309;239;28121;-70
2022/11/08 08:13:54;;;;;;;2.63;1.57;;;10.30;99.90;;;;;;496310;239;27884;-70
2022/11/08 08:15:54;;;;;;;1.53;1.47;;;10.40;99.90;;;;;;496198;239;27990;-70
2022/11/08 08:17:55;;;;;;;1.60;1.50;;;10.50;99.90;;;;;;496313;239;27837;-70
2022/11/08 08:19:56;;;;;;;1.93;1.60;;;10.60;99.90;;;;;;496316;239;27957;-70
2022/11/08 08:21:58;;;;;;;1.70;1.60;;;10.60;99.90;;;;;;496311;239;28138;-70
2022/11/08 08:23:59;;;;;;;1.90;1.80;;;10.60;99.90;;;;;;496308;239;27959;-70
2022/11/08 08:26:00;;;;;;;2.07;1.70;;;10.70;99.90;;;;;;496297;239;27981;-70
2022/11/08 08:28:01;;;;;;;1.80;1.70;;;10.80;99.90;;;;;;496307;239;27851;-72
2022/11/08 08:30:03;;;;;;;1.93;1.73;;;10.90;99.90;;;;;;496105;239;28540;-71
2022/11/08 08:32:04;;;;;;;2.00;1.87;;;11.00;99.90;;;;;;496268;239;28335;-70
2022/11/08 08:34:05;;;;;;;1.83;1.73;;;11.00;99.90;;;;;;496342;239;28637;-70
2022/11/08 08:36:06;;;;;;;1.77;1.67;;;11.00;99.90;;;;;;496313;239;27688;-70
2022/11/08 08:38:08;;;;;;;1.60;1.50;;;11.00;99.90;;;;;;496348;239;27647;-71
2022/11/08 08:40:09;;;;;;;4.90;1.73;;;11.00;99.90;;;;;;496362;239;28136;-70
2022/11/08 08:42:10;;;;;;;2.00;1.90;;;11.00;99.90;;;;;;496369;239;28147;-70
2022/11/08 08:44:11;;;;;;;2.07;1.80;;;11.00;99.90;;;;;;496343;239;27809;-69
2022/11/08 08:46:13;;;;;;;1.77;1.60;;;11.10;99.90;;;;;;496319;239;28067;-70
2022/11/08 08:48:14;;;;;;;2.20;1.70;;;11.10;99.90;;;;;;496336;239;27983;-71
2022/11/08 08:50:15;;;;;;;2.10;1.90;;;11.20;99.90;;;;;;496329;239;28038;-70
2022/11/08 08:52:16;;;;;;;1.73;1.63;;;11.20;99.90;;;;;;496335;239;27629;-71
2022/11/08 08:54:18;;;;;;;1.83;1.73;;;11.30;99.90;;;;;;496307;239;28869;-70
2022/11/08 08:56:19;;;;;;;1.60;1.50;;;11.40;99.90;;;;;;496296;239;28528;-70
2022/11/08 08:58:20;;;;;;;2.30;1.93;;;11.40;99.90;;;;;;496333;239;28510;-70
2022/11/08 09:00:21;;;;;;;2.00;1.90;;;11.50;99.90;;;;;;496314;239;27846;-72
2022/11/08 09:02:23;;;;;;;1.80;1.70;;;11.50;99.90;;;;;;496292;239;27978;-71
2022/11/08 09:04:24;;;;;;;4.30;1.90;;;11.50;99.90;;;;;;496265;239;27712;-70
2022/11/08 09:06:25;;;;;;;1.87;1.77;;;11.50;99.90;;;;;;496211;239;27977;-70
2022/11/08 09:08:26;;;;;;;2.43;1.70;;;11.50;99.90;;;;;;496330;239;27994;-71
2022/11/08 09:10:28;;;;;;;1.90;1.70;;;11.50;99.90;;;;;;496324;239;28205;-70
2022/11/08 09:12:29;;;;;;;1.93;1.83;;;11.50;99.90;;;;;;496341;239;28072;-70
2022/11/08 09:14:30;;;;;;;1.73;1.63;;;11.40;99.90;;;;;;496320;239;28031;-69
2022/11/08 09:16:31;;;;;;;2.00;1.77;;;11.50;99.90;;;;;;496235;239;28021;-70
2022/11/08 09:18:33;;;;;;;2.80;1.80;;;11.60;99.90;;;;;;496326;239;28352;-72
2022/11/08 09:20:34;;;;;;;2.20;2.00;;;11.70;99.90;;;;;;495978;239;28288;-70
2022/11/08 09:22:35;;;;;;;2.10;1.90;;;11.70;99.90;;;;;;495070;239;28568;-70
2022/11/08 09:24:36;;;;;;;2.57;2.37;;;11.70;99.90;;;;;;495502;239;28972;-70
2022/11/08 09:26:38;;;;;;;2.03;1.93;;;11.70;99.90;;;;;;495967;239;28301;-70
2022/11/08 09:28:39;;;;;;;2.10;2.00;;;11.80;99.90;;;;;;496304;239;27991;-70
2022/11/08 09:30:40;;;;;;;2.13;1.93;;;11.90;99.90;;;;;;496299;239;27990;-70
2022/11/08 09:32:41;;;;;;;2.30;2.20;;;11.90;99.90;;;;;;496327;239;27978;-70
2022/11/08 09:34:43;;;;;;;2.27;2.13;;;12.00;99.90;;;;;;496295;239;28078;-70
2022/11/08 09:36:44;;;;;;;2.30;2.00;;;12.00;99.90;;;;;;496324;239;28160;-70
2022/11/08 09:38:45;;;;;;;1.97;1.80;;;12.00;99.90;;;;;;496310;239;27990;-70
2022/11/08 09:40:47;;;;;;;1.80;1.70;;;12.00;99.90;;;;;;496327;238;27990;-70
2022/11/08 09:42:48;;;;;;;1.77;1.67;;;12.10;99.90;;;;;;496299;239;28428;-70
2022/11/08 09:44:49;;;;;;;2.17;1.93;;;12.10;99.90;;;;;;496322;239;29167;-70
2022/11/08 09:46:50;;;;;;;1.80;1.70;;;12.10;99.90;;;;;;496322;239;28677;-70
2022/11/08 09:48:51;;;;;;;1.60;1.50;;;12.20;99.90;;;;;;496320;239;28719;-70
2022/11/08 09:50:53;;;;;;;2.17;2.03;;;12.30;99.90;;;;;;496320;239;27941;-70
2022/11/08 09:52:54;;;;;;;2.93;1.93;;;12.30;99.90;;;;;;496335;239;28210;-70
2022/11/08 09:54:55;;;;;;;1.90;1.80;;;12.30;99.90;;;;;;496307;239;28084;-70
2022/11/08 09:56:56;;;;;;;1.80;1.70;;;12.30;99.90;;;;;;496323;239;28058;-70
2022/11/08 09:59:03;;;;;;;1.87;1.70;;;12.30;99.90;;;;;;496317;239;28817;-71
2022/11/08 10:01:05;;;;;;;1.90;1.77;;;12.30;99.90;;;;;;496312;238;28040;-70
2022/11/08 10:03:06;;;;;;;3.23;1.80;;;12.40;99.90;;;;;;496350;239;28266;-71
2022/11/08 10:05:11;;;;;;;1.50;1.40;;;12.50;99.90;;;;;;496339;239;28051;-70
2022/11/08 10:07:08;;;;;;;1.70;1.60;;;12.50;99.90;;;;;;495650;239;28057;-70
2022/11/08 10:09:10;;;;;;;1.93;1.83;;;12.60;99.90;;;;;;496315;239;28237;-71
2022/11/08 10:11:11;;;;;;;1.87;1.77;;;12.60;99.90;;;;;;496316;239;28290;-70
2022/11/08 10:13:12;;;;;;;1.77;1.67;;;12.70;99.90;;;;;;496338;239;28202;-70
2022/11/08 10:15:13;;;;;;;1.60;1.50;;;12.70;99.90;;;;;;496326;239;28058;-70
2022/11/08 10:17:15;;;;;;;1.97;1.87;;;12.80;99.90;;;;;;496329;239;28246;-70
2022/11/08 10:19:16;;;;;;;2.00;1.90;;;12.90;99.90;;;;;;496352;239;28845;-70
2022/11/08 10:21:17;;;;;;;3.40;1.90;;;13.00;99.90;;;;;;496345;239;28874;-70
2022/11/08 10:23:20;;;;;;;2.20;1.50;;;13.00;99.90;;;;;;496346;239;28865;-70
2022/11/08 10:25:20;;;;;;;1.83;1.70;;;13.10;99.90;;;;;;496180;239;28187;-70
2022/11/08 10:27:21;;;;;;;1.60;1.50;;;13.10;99.90;;;;;;496324;239;28389;-70
2022/11/08 10:29:22;;;;;;;1.70;1.60;;;13.20;99.90;;;;;;496314;239;28911;-71
2022/11/08 10:31:23;;;;;;;1.50;1.40;;;13.20;99.90;;;;;;496314;239;28465;-70
2022/11/08 10:33:25;;;;;;;1.83;1.73;;;13.30;99.90;;;;;;496324;239;28414;-70
2022/11/08 10:35:26;;;;;;;2.10;2.00;;;13.40;99.90;;;;;;496337;239;28397;-70
2022/11/08 10:37:27;;;;;;;2.37;1.77;;;13.50;99.90;;;;;;496312;239;28825;-70
2022/11/08 10:39:28;;;;;;;1.80;1.70;;;13.50;99.90;;;;;;496330;239;28523;-70
2022/11/08 10:41:30;;;;;;;4.47;1.87;;;13.60;99.90;;;;;;496320;239;28481;-70
2022/11/08 10:43:31;;;;;;;2.17;1.97;;;13.70;99.90;;;;;;496297;239;28530;-71
2022/11/08 10:45:32;;;;;;;1.97;1.70;;;13.90;99.90;;;;;;496272;239;28471;-69
2022/11/08 10:47:33;;;;;;;3.17;1.80;;;14.00;99.90;;;;;;496310;239;28740;-70
2022/11/08 10:49:36;;;;;;;1.77;1.67;;;;;;;;;;496324;239;28296;-70
2022/11/08 10:51:37;;;;;;;1.60;1.50;;;14.10;99.90;;;;;;496317;239;27549;-70
2022/11/08 10:53:38;;;;;;;1.83;1.70;;;14.10;99.90;;;;;;496305;239;29100;-70
2022/11/08 10:55:41;;;;;;;1.83;1.60;;;;;;;;;;496326;239;28614;-70
2022/11/08 10:57:42;;;;;;;1.80;1.70;;;14.10;99.90;;;;;;496328;239;26594;-71
2022/11/08 10:59:43;;;;;;;3.07;1.73;;;14.30;99.90;;;;;;496299;239;28331;-71
2022/11/08 11:01:45;;;;;;;1.93;1.83;;;14.30;99.90;;;;;;496317;239;28580;-70